KSOP/SOP METAR and TAF weather

Enter ICAO airport designator
Station Type Date Time Source
KSOP METAR 2022/12/04 00:56 UTC NOAA

KSOP 040056Z AUTO 27003KT 10SM SCT012 16/15 A3025 RMK AO2 SLP246 T01560150 TSNO


Station Type Date Time Source
KSOP Decoded METAR 2022/12/04 00:56 UTC NOAA

Pinehurst/Southern Pines, Moore County Airport, NC, United States (KSOP) 35-14N 079-24W
Dec 03, 2022 - 07:56 PM EST / 2022.12.04 0056 UTC
Wind: from the W (270 degrees) at 3 MPH (3 KT):0
Visibility: 10 mile(s):0
Sky conditions: partly cloudy
Temperature: 60.1 F (15.6 C)
Dew Point: 59.0 F (15.0 C)
Relative Humidity: 96%
Pressure (altimeter): 30.25 in. Hg (1024 hPa)
ob: KSOP 040056Z AUTO 27003KT 10SM SCT012 16/15 A3025 RMK AO2 SLP246 T01560150 TSNO
cycle: 1

Station Type Date Time Source
KSOP TAF UTC NOAA

Error!

Example: see airport list